Time;durP1;ratioP1;P1;durP2;ratioP2;P2;SDS_P1;SDS_P2;PMS_P1;PMS_P2;Temp;Humidity;BMP_temperature;BMP_pressure;BME280_temperature;BME280_humidity;BME280_pressure;Samples;Min_cycle;Max_cycle;Signal;HPM_P1;HPM_P2
2022/05/23 00:02:46;;;;;;;6.35;2.55;;;;;;;11.18;70.50;98770.00;4205090;83;21039;-82
2022/05/23 00:08:50;;;;;;;6.17;3.65;;;;;;;11.14;70.91;98776.83;4238378;82;21086;-82
2022/05/23 00:14:51;;;;;;;7.62;3.20;;;;;;;10.95;70.82;98775.16;4232980;82;21945;-82
2022/05/23 00:20:53;;;;;;;6.78;3.47;;;;;;;10.73;70.91;98778.92;4213470;83;21074;-82
2022/05/23 00:26:57;;;;;;;6.78;3.67;;;;;;;10.56;71.52;98782.89;4212065;83;21071;-81
2022/05/23 00:39:37;;;;;;;7.97;3.45;;;;;;;10.22;72.00;98789.07;4237076;82;21074;-82
2022/05/23 00:45:55;;;;;;;6.35;3.77;;;;;;;10.20;72.50;98795.50;4230127;82;21070;-81
2022/05/23 00:52:07;;;;;;;5.92;3.70;;;;;;;10.14;72.15;98797.01;4217700;82;21055;-81
2022/05/23 00:58:16;;;;;;;7.53;3.60;;;;;;;9.94;72.60;98807.12;4209812;83;21024;-83
2022/05/23 01:04:21;;;;;;;6.20;3.35;;;;;;;9.71;72.70;98811.94;4240175;82;20993;-82
2022/05/23 01:10:23;;;;;;;6.15;3.40;;;;;;;9.38;73.34;98816.22;4251037;81;20995;-82
2022/05/23 01:16:27;;;;;;;6.05;4.10;;;;;;;9.35;73.97;98812.87;4246195;82;21086;-82
2022/05/23 01:22:56;;;;;;;6.40;3.87;;;;;;;9.22;73.62;98812.87;4202710;83;21003;-82
2022/05/23 01:29:14;;;;;;;9.78;4.53;;;;;;;9.01;73.43;98819.43;4237801;82;21014;-82
2022/05/23 01:35:20;;;;;;;4.60;3.65;;;;;;;8.83;74.10;98816.23;4189622;82;21057;-83
2022/05/23 01:41:23;;;;;;;6.60;3.83;;;;;;;8.65;73.88;98821.41;4240194;82;21008;-81
2022/05/23 01:47:31;;;;;;;6.40;4.03;;;;;;;8.46;74.81;98820.13;4292078;83;21150;-83
2022/05/23 01:53:46;;;;;;;8.33;4.42;;;;;;;8.60;75.04;98814.09;4201844;83;21107;-82
2022/05/23 02:06:28;;;;;;;6.60;4.30;;;;;;;8.16;75.06;98809.63;4217382;83;22022;-82
2022/05/23 02:12:39;;;;;;;7.58;4.55;;;;;;;7.88;74.65;98815.38;4223854;83;21042;-82
2022/05/23 02:18:43;;;;;;;11.78;5.05;;;;;;;7.77;75.52;98818.47;4188664;83;21082;-82
2022/05/23 02:24:56;;;;;;;8.30;5.42;;;;;;;7.57;75.38;98818.84;4224433;83;21031;-82
2022/05/23 02:31:00;;;;;;;7.87;4.65;;;;;;;7.48;75.81;98818.27;4211915;83;21043;-82
2022/05/23 02:37:14;;;;;;;12.78;6.10;;;;;;;7.41;75.87;98816.19;4214925;83;21053;-82
2022/05/23 02:43:27;;;;;;;10.72;5.92;;;;;;;7.36;76.34;98812.98;4218891;83;21054;-82
2022/05/23 02:49:31;;;;;;;7.12;5.60;;;;;;;7.28;76.82;98808.53;4215187;83;21046;-82
2022/05/23 02:55:35;;;;;;;10.68;6.20;;;;;;;7.22;76.99;98809.37;4190582;83;21537;-82
2022/05/23 03:03:01;;;;;;;11.35;6.20;;;;;;;7.17;77.50;98804.79;4181124;83;21072;-81
2022/05/23 03:07:45;;;;;;;6.70;5.37;;;;;;;7.35;77.76;98799.92;4202726;83;21210;-81
2022/05/23 03:13:55;;;;;;;10.35;5.90;;;;;;;7.30;77.92;98794.76;4196995;83;21513;-81
2022/05/23 03:20:03;;;;;;;8.28;5.35;;;;;;;7.20;77.71;98801.35;4226407;82;21546;-81
2022/05/23 03:32:25;;;;;;;7.40;5.12;;;;;;;7.22;78.65;98806.64;4211809;82;21074;-81
2022/05/23 03:38:29;;;;;;;6.47;4.20;;;;;;;7.56;79.40;98819.41;4228894;82;21092;-81
2022/05/23 03:44:31;;;;;;;7.65;5.30;;;;;;;7.85;79.25;98810.65;4172818;83;21080;-85
2022/05/23 03:50:36;;;;;;;8.53;5.03;;;;;;;7.91;79.02;98817.94;4130395;84;27699;-81
2022/05/23 03:56:43;;;;;;;7.53;5.20;;;;;;;8.03;79.36;98821.29;4132183;84;21702;-81
2022/05/23 04:02:45;;;;;;;10.23;5.45;;;;;;;8.23;79.37;98821.28;4109829;85;21083;-81
2022/05/23 04:08:48;;;;;;;12.68;6.22;;;;;;;8.19;78.98;98815.72;4100140;85;21139;-82
2022/05/23 04:14:50;;;;;;;12.20;6.92;;;;;;;8.23;79.61;98820.71;4091284;85;21078;-82
2022/05/23 04:20:53;;;;;;;13.55;7.05;;;;;;;8.29;79.62;98819.25;4099327;84;21400;-82
2022/05/23 04:26:57;;;;;;;13.68;7.72;;;;;;;8.43;80.01;98831.77;4142411;84;21137;-81
2022/05/23 04:39:24;;;;;;;11.88;8.55;;;;;;;8.85;80.33;98826.19;4126113;84;21083;-81
2022/05/23 04:45:37;;;;;;;14.10;7.70;;;;;;;9.10;80.30;98820.51;4111726;84;21411;-81
2022/05/23 04:51:41;;;;;;;10.20;5.85;;;;;;;9.34;80.28;98824.17;4102691;84;21005;-81
2022/05/23 05:04:37;;;;;;;9.08;6.08;;;;;;;9.73;80.25;98825.44;4211400;82;21087;-82
2022/05/23 05:10:39;;;;;;;9.38;6.15;;;;;;;9.98;80.37;98825.70;4189131;83;21041;-81
2022/05/23 05:16:53;;;;;;;9.43;6.22;;;;;;;10.19;80.28;98828.70;4209261;83;21580;-80
2022/05/23 05:22:57;;;;;;;8.33;5.75;;;;;;;10.42;80.21;98815.62;4238852;82;21052;-82
2022/05/23 05:29:04;;;;;;;7.33;4.17;;;;;;;10.75;80.28;98827.82;4219502;83;21002;-81
2022/05/23 05:35:52;;;;;;;4.62;3.25;;;;;;;11.07;79.16;98822.77;4122435;84;21020;-82
2022/05/23 05:42:17;;;;;;;10.15;5.72;;;;;;;11.26;77.84;98824.44;4227157;83;21026;-82
2022/05/23 05:48:19;;;;;;;8.35;5.10;;;;;;;11.41;77.88;98828.84;4229796;81;21082;-82
2022/05/23 05:54:39;;;;;;;13.18;5.75;;;;;;;11.55;77.53;98831.65;4220102;83;21042;-83
2022/05/23 06:01:00;;;;;;;7.97;6.22;;;;;;;11.71;77.77;98833.52;4162806;84;21070;-81
2022/05/23 06:13:33;;;;;;;6.10;3.90;;;;;;;12.10;76.80;98835.80;4208225;83;21031;-82
2022/05/23 06:20:12;;;;;;;7.17;3.22;;;;;;;12.27;76.17;98840.53;4227097;83;21091;-82
2022/05/23 06:26:30;;;;;;;5.03;2.90;;;;;;;12.44;75.18;98848.59;4148467;84;21070;-83
2022/05/23 06:33:09;;;;;;;5.28;2.92;;;;;;;12.57;73.65;98849.18;4118923;84;21003;-82
2022/05/23 06:39:29;;;;;;;3.12;2.45;;;;;;;12.75;73.80;98857.44;4143088;84;21138;-84
2022/05/23 06:45:37;;;;;;;4.62;2.05;;;;;;;13.05;73.54;98859.80;3940777;89;21471;-81
2022/05/23 06:52:10;;;;;;;3.60;2.47;;;;;;;13.41;72.51;98855.23;4031764;87;21069;-83
2022/05/23 06:58:38;;;;;;;5.20;2.37;;;;;;;14.19;72.60;98862.58;4043582;87;21677;-84
2022/05/23 07:18:50;;;;;;;2.05;1.45;;;;;;;15.93;69.68;98855.19;4155598;84;21176;-83
2022/05/23 07:25:01;;;;;;;2.65;1.10;;;;;;;16.53;68.39;98844.90;4083637;85;21068;-82
2022/05/23 07:31:03;;;;;;;3.72;1.50;;;;;;;16.94;67.32;98835.73;4064255;86;21259;-82
2022/05/23 07:44:17;;;;;;;2.58;1.12;;;;;;;17.52;65.56;98833.55;4156298;84;21067;-83
2022/05/23 07:50:23;;;;;;;2.27;1.30;;;;;;;17.87;63.55;98820.39;3962021;89;21138;-81
2022/05/23 08:03:29;;;;;;;3.37;1.25;;;;;;;17.26;62.60;98824.11;3971752;88;21715;-84
2022/05/23 08:10:00;;;;;;;3.62;1.60;;;;;;;17.06;57.79;98817.76;3992871;86;21089;-83
2022/05/23 08:16:11;;;;;;;3.75;1.27;;;;;;;17.20;60.64;98800.31;4125255;85;21067;-83
2022/05/23 08:22:51;;;;;;;1.52;0.95;;;;;;;17.15;58.97;98794.47;4226064;83;20996;-83
2022/05/23 08:29:00;;;;;;;1.50;0.80;;;;;;;16.48;59.32;98792.08;4216539;82;20964;-83
2022/05/23 08:35:08;;;;;;;2.17;1.17;;;;;;;16.60;59.12;98781.84;4198037;83;21013;-82
2022/05/23 08:56:26;;;;;;;4.92;1.00;;;;;;;17.03;58.30;98760.53;4062199;86;21138;-83
2022/05/23 09:16:57;;;;;;;1.65;0.90;;;;;;;17.77;56.74;98757.70;4104975;85;20300;-83
2022/05/23 09:23:36;;;;;;;1.30;0.80;;;;;;;18.24;54.63;98752.88;4098486;85;21095;-84
2022/05/23 09:30:03;;;;;;;2.87;1.27;;;;;;;18.65;54.22;98757.23;4104550;85;21227;-84
2022/05/23 09:50:59;;;;;;;1.77;1.10;;;;;;;18.77;53.32;98748.83;3995262;87;21047;-84
2022/05/23 10:11:38;;;;;;;5.67;1.27;;;;;;;18.57;53.25;98729.50;4000534;87;21076;-85
2022/05/23 10:17:41;;;;;;;3.20;1.47;;;;;;;19.30;48.35;98721.06;4050977;85;21057;-85
2022/05/23 10:24:07;;;;;;;5.55;1.25;;;;;;;19.71;47.59;98718.28;4219488;84;21008;-83
2022/05/23 10:30:31;;;;;;;1.27;1.00;;;;;;;18.98;47.54;98724.68;4052016;86;21063;-84
2022/05/23 10:37:02;;;;;;;1.90;0.70;;;;;;;18.63;48.96;98724.23;4051832;86;21100;-83
2022/05/23 10:43:22;;;;;;;3.87;1.77;;;;;;;18.52;49.22;98726.49;4066914;86;21087;-84
2022/05/23 10:49:36;;;;;;;3.22;1.10;;;;;;;18.74;48.78;98724.11;4126814;85;21406;-85
2022/05/23 10:56:16;;;;;;;3.22;1.62;;;;;;;18.58;49.03;98728.91;4086025;86;21979;-83
2022/05/23 11:03:00;;;;;;;2.72;1.37;;;;;;;18.34;49.15;98726.10;4063412;84;21041;-83
2022/05/23 11:39:00;;;;;;;4.00;1.55;;;;;;;18.68;49.60;98690.45;4061592;86;21508;-85
2022/05/23 11:52:30;;;;;;;2.65;1.30;;;;;;;19.24;49.24;98688.89;4051446;83;21508;-82
2022/05/23 11:58:49;;;;;;;4.42;1.72;;;;;;;19.40;49.28;98680.54;4205808;83;21106;-84
2022/05/23 12:05:12;;;;;;;5.75;1.35;;;;;;;19.57;48.85;98677.84;4195933;82;21066;-85
2022/05/23 12:11:56;;;;;;;5.05;1.70;;;;;;;19.73;48.80;98667.25;4222278;83;21056;-85
2022/05/23 12:18:12;;;;;;;;;;;;;;;;;;;;;
2022/05/23 12:24:42;;;;;;;2.33;1.42;;;;;;;19.76;48.54;98662.20;4034544;86;21146;-84
2022/05/23 12:53:09;;;;;;;3.85;1.60;;;;;;;19.37;47.51;98625.88;4079667;85;21090;-85
2022/05/23 13:06:24;;;;;;;7.08;1.77;;;;;;;19.29;46.67;98604.34;4220119;81;21012;-84
2022/05/23 13:25:37;;;;;;;4.50;1.00;;;;;;;19.29;46.17;98573.22;4144956;85;21579;-84
2022/05/23 13:52:10;;;;;;;2.08;1.35;;;;;;;19.14;45.51;98569.91;4124134;85;21528;-85
2022/05/23 13:58:44;;;;;;;2.47;1.00;;;;;;;19.08;45.46;98569.66;4186985;83;21087;-84
2022/05/23 14:04:50;;;;;;;2.17;0.90;;;;;;;18.97;44.47;98551.16;4248020;82;21491;-83
2022/05/23 14:11:43;;;;;;;2.37;1.00;;;;;;;18.89;44.51;98557.38;4215221;82;21067;-83
2022/05/23 14:25:22;;;;;;;1.60;1.00;;;;;;;18.82;44.45;98558.95;4226103;82;21059;-83
2022/05/23 14:31:51;;;;;;;2.12;1.10;;;;;;;18.71;42.88;98554.47;4197798;82;21039;-82
2022/05/23 14:38:28;;;;;;;4.20;1.15;;;;;;;18.50;43.53;98548.16;4170804;84;20987;-80
2022/05/23 14:44:34;;;;;;;1.37;0.98;;;;;;;18.50;43.99;98543.21;4093272;86;21043;-82
2022/05/23 14:50:54;;;;;;;4.50;1.20;;;;;;;18.57;44.47;98537.48;4211016;82;21031;-85
2022/05/23 14:57:12;;;;;;;2.62;1.30;;;;;;;18.58;44.62;98532.88;4222977;82;21039;-85
2022/05/23 15:03:42;;;;;;;2.17;1.50;;;;;;;18.56;44.74;98533.14;4213861;82;20988;-84
2022/05/23 15:09:49;;;;;;;1.75;1.10;;;;;;;18.58;44.76;98526.55;4251909;82;21851;-83
2022/05/23 15:16:02;;;;;;;3.33;1.72;;;;;;;18.45;45.27;98521.56;4194132;83;20960;-84
2022/05/23 15:22:21;;;;;;;7.35;1.40;;;;;;;18.46;45.47;98519.75;4180547;83;20996;-84
2022/05/23 15:42:25;;;;;;;3.52;1.50;;;;;;;18.07;46.30;98515.08;4202093;83;21160;-85
2022/05/23 15:48:50;;;;;;;2.45;1.30;;;;;;;18.02;46.18;98517.78;4206064;82;21070;-83
2022/05/23 15:55:13;;;;;;;2.42;1.32;;;;;;;18.01;46.37;98512.05;4204470;83;21915;-84
2022/05/23 16:01:20;;;;;;;1.72;1.40;;;;;;;17.97;46.47;98511.97;4204047;83;21138;-85
2022/05/23 16:07:27;;;;;;;3.02;1.15;;;;;;;17.83;46.51;98488.81;4206176;83;21077;-84
2022/05/23 16:13:29;;;;;;;1.80;1.20;;;;;;;17.75;46.37;98486.05;4194224;83;21064;-83
2022/05/23 16:19:43;;;;;;;2.25;1.40;;;;;;;17.78;46.39;98481.81;4107647;84;21042;-84
2022/05/23 16:25:46;;;;;;;3.35;1.50;;;;;;;17.71;46.46;98476.44;4132252;85;21041;-84
2022/05/23 16:31:49;;;;;;;6.93;1.70;;;;;;;17.72;46.78;98469.71;4186200;83;21189;-85
2022/05/23 16:38:17;;;;;;;2.90;1.50;;;;;;;17.67;47.10;98473.00;4194492;83;21013;-85
2022/05/23 16:44:24;;;;;;;5.83;1.65;;;;;;;17.60;47.21;98477.34;4183477;83;21035;-84
2022/05/23 16:50:28;;;;;;;2.27;1.37;;;;;;;17.42;47.71;98474.19;4193414;83;21078;-86
2022/05/23 16:56:29;;;;;;;3.50;1.32;;;;;;;17.29;47.90;98465.64;4187837;83;21718;-84
2022/05/23 17:02:30;;;;;;;2.30;1.60;;;;;;;17.12;48.13;98455.16;4189448;83;20988;-83
2022/05/23 17:08:36;;;;;;;4.42;1.87;;;;;;;17.00;48.36;98457.22;4188730;83;21035;-83
2022/05/23 17:14:46;;;;;;;2.13;1.60;;;;;;;16.91;49.09;98456.42;4189016;83;21068;-82
2022/05/23 17:21:38;;;;;;;2.35;1.75;;;;;;;16.84;49.48;98459.95;4191022;83;21306;-83
2022/05/23 17:27:40;;;;;;;4.55;2.00;;;;;;;16.74;50.02;98476.95;4189554;83;21102;-83
2022/05/23 17:33:48;;;;;;;5.20;2.50;;;;;;;16.65;50.27;98477.34;4187398;83;21052;-83
2022/05/23 17:39:51;;;;;;;5.10;2.40;;;;;;;16.55;50.54;98474.22;4186705;83;21536;-83
2022/05/23 17:45:58;;;;;;;3.90;2.47;;;;;;;16.44;50.78;98465.34;4181702;83;21032;-84
2022/05/23 17:52:16;;;;;;;6.78;2.22;;;;;;;16.32;51.21;98463.23;4080740;83;10000318;-83
2022/05/23 17:58:24;;;;;;;4.42;2.37;;;;;;;16.17;51.38;98466.88;4182029;83;21051;-84
2022/05/23 18:04:39;;;;;;;3.80;2.05;;;;;;;16.08;51.39;98458.38;4183611;83;22175;-82
2022/05/23 18:10:42;;;;;;;4.40;2.50;;;;;;;16.00;51.54;98452.02;4191651;82;21175;-84
2022/05/23 18:23:10;;;;;;;3.90;2.30;;;;;;;15.76;51.97;98442.22;4204717;83;21634;-83
2022/05/23 18:29:24;;;;;;;7.05;2.67;;;;;;;15.61;52.23;98438.95;4199689;84;22103;-83
2022/05/23 18:36:07;;;;;;;4.42;2.85;;;;;;;15.50;52.60;98446.63;4105456;85;20961;-83
2022/05/23 18:42:40;;;;;;;8.00;3.47;;;;;;;15.37;52.90;98454.70;4082083;85;21040;-84
2022/05/23 18:55:42;;;;;;;5.55;3.05;;;;;;;15.04;53.85;98456.20;4115929;85;21004;-83
2022/05/23 19:01:52;;;;;;;4.85;2.83;;;;;;;14.86;54.15;98459.84;4102446;85;21045;-82
2022/05/23 19:08:01;;;;;;;5.65;2.87;;;;;;;14.65;54.54;98467.80;4117012;84;21993;-82
2022/05/23 19:20:54;;;;;;;5.10;2.70;;;;;;;14.32;55.28;98472.75;4046627;88;21003;-83
2022/05/23 19:27:19;;;;;;;5.72;3.05;;;;;;;14.15;55.55;98473.70;4198559;83;21836;-82
2022/05/23 19:33:31;;;;;;;4.05;2.40;;;;;;;14.01;55.87;98458.73;4165405;83;20991;-82
2022/05/23 19:39:39;;;;;;;3.40;2.27;;;;;;;13.80;56.27;98464.45;4291844;83;20982;-83
2022/05/23 19:45:53;;;;;;;4.15;2.25;;;;;;;13.63;56.51;98467.56;4214008;83;21072;-83
2022/05/23 19:52:11;;;;;;;4.45;2.40;;;;;;;13.55;57.72;98477.66;4258373;83;21080;-83
2022/05/23 19:58:22;;;;;;;4.97;2.80;;;;;;;13.25;57.68;98478.91;4212478;83;20965;-82
2022/05/23 20:11:00;;;;;;;5.25;3.27;;;;;;;12.80;58.84;98479.95;4200087;83;21015;-82
2022/05/23 20:17:01;;;;;;;7.08;4.65;;;;;;;12.63;59.57;98485.16;4089422;83;20979;-83
2022/05/23 20:23:19;;;;;;;9.23;5.20;;;;;;;12.43;59.63;98484.06;4183397;83;21036;-82
2022/05/23 20:29:36;;;;;;;6.92;4.87;;;;;;;12.34;60.14;98481.58;4270972;82;21049;-83
2022/05/23 20:35:43;;;;;;;7.75;3.90;;;;;;;12.14;59.85;98479.08;4306822;81;21025;-82
2022/05/23 20:41:45;;;;;;;6.37;4.08;;;;;;;11.92;60.30;98467.40;4212924;82;21003;-82
2022/05/23 20:47:52;;;;;;;6.50;3.98;;;;;;;11.84;60.77;98469.20;4214570;82;21054;-83
2022/05/23 20:54:04;;;;;;;5.67;3.67;;;;;;;11.82;61.88;98469.59;4232516;82;21040;-83
2022/05/23 21:00:22;;;;;;;7.22;3.65;;;;;;;11.85;62.61;98469.38;4173619;84;21050;-82
2022/05/23 21:06:41;;;;;;;6.75;3.72;;;;;;;11.62;61.95;98462.92;4226853;82;21065;-83
2022/05/23 21:12:48;;;;;;;6.53;4.15;;;;;;;11.42;62.57;98466.47;4209823;84;21016;-82
2022/05/23 21:19:25;;;;;;;6.08;4.50;;;;;;;11.29;63.01;98456.48;4225039;82;21009;-82
2022/05/23 21:25:39;;;;;;;13.05;6.60;;;;;;;11.24;63.59;98465.12;4187603;84;21041;-82
2022/05/23 21:31:47;;;;;;;6.42;4.20;;;;;;;11.16;64.48;98467.66;4191969;84;21040;-83
2022/05/23 21:38:14;;;;;;;8.95;6.12;;;;;;;11.21;65.09;98474.70;4199451;83;21054;-82
2022/05/23 21:51:11;;;;;;;9.50;6.12;;;;;;;10.73;65.64;98464.09;4189297;84;21015;-82
2022/05/23 21:57:20;;;;;;;12.58;6.55;;;;;;;10.45;65.79;98459.13;4193331;83;21777;-82
2022/05/23 22:03:43;;;;;;;8.50;5.47;;;;;;;10.27;66.14;98455.56;4176765;84;20992;-82
2022/05/23 22:10:20;;;;;;;7.20;4.87;;;;;;;10.08;66.52;98453.92;4214691;84;21052;-83
2022/05/23 22:16:31;;;;;;;9.68;5.65;;;;;;;10.01;66.45;98453.05;4151758;83;21016;-82
2022/05/23 22:22:56;;;;;;;12.33;7.05;;;;;;;9.99;67.45;98447.20;4144103;84;21039;-82
2022/05/23 22:29:10;;;;;;;14.28;8.15;;;;;;;9.98;67.66;98449.15;4068779;85;21148;-82
2022/05/23 22:35:18;;;;;;;12.30;7.00;;;;;;;9.97;67.98;98436.66;4143835;84;21582;-82
2022/05/23 22:41:52;;;;;;;14.33;7.07;;;;;;;10.01;68.38;98431.97;4124108;84;21044;-82
2022/05/23 22:54:13;;;;;;;13.65;7.70;;;;;;;10.03;68.73;98407.77;4215743;82;21479;-82
2022/05/23 23:00:25;;;;;;;11.57;6.20;;;;;;;10.03;68.70;98406.98;4229744;82;21070;-82
2022/05/23 23:06:46;;;;;;;9.00;4.80;;;;;;;10.05;69.44;98406.81;4219999;82;21063;-82
2022/05/23 23:13:00;;;;;;;7.53;4.95;;;;;;;10.07;69.41;98403.69;4161130;82;20995;-82
2022/05/23 23:19:03;;;;;;;7.37;4.53;;;;;;;10.07;69.34;98409.16;4268652;81;21021;-82
2022/05/23 23:25:18;;;;;;;5.67;4.17;;;;;;;10.05;69.49;98407.38;4237777;82;21061;-82
2022/05/23 23:31:21;;;;;;;6.83;5.00;;;;;;;10.01;69.72;98399.73;4257002;82;21378;-83
2022/05/23 23:44:03;;;;;;;10.93;6.47;;;;;;;9.94;70.06;98392.31;4230773;82;21161;-82
2022/05/23 23:50:14;;;;;;;9.95;4.80;;;;;;;9.92;70.33;98376.08;4242848;82;21030;-82
2022/05/23 23:56:16;;;;;;;7.90;4.92;;;;;;;9.90;70.64;98375.70;4230519;82;21942;-82
